Map

Track Data

SID SEASON NUMBER BASIN SUBBASIN NAME ISO_TIME NATURE LAT LON WMO_WIND WMO_PRES WMO_AGENCY TRACK_TYPE DIST2LAND LANDFALL IFLAG USA_AGENCY USA_ATCF_ID USA_LAT USA_LON USA_RECORD USA_STATUS USA_WIND USA_PRES USA_SSHS USA_R34_NE USA_R34_SE USA_R34_SW USA_R34_NW USA_R50_NE USA_R50_SE USA_R50_SW USA_R50_NW USA_R64_NE USA_R64_SE USA_R64_SW USA_R64_NW USA_POCI USA_ROCI USA_RMW USA_EYE TOKYO_LAT TOKYO_LON TOKYO_GRADE TOKYO_WIND TOKYO_PRES TOKYO_R50_DIR TOKYO_R50_LONG TOKYO_R50_SHORT TOKYO_R30_DIR TOKYO_R30_LONG TOKYO_R30_SHORT TOKYO_LAND CMA_LAT CMA_LON CMA_CAT CMA_WIND CMA_PRES HKO_LAT HKO_LON HKO_CAT HKO_WIND HKO_PRES NEWDELHI_LAT NEWDELHI_LON NEWDELHI_GRADE NEWDELHI_WIND NEWDELHI_PRES NEWDELHI_CI NEWDELHI_DP NEWDELHI_POCI REUNION_LAT REUNION_LON REUNION_TYPE REUNION_WIND REUNION_PRES REUNION_TNUM REUNION_CI REUNION_RMW REUNION_R34_NE REUNION_R34_SE REUNION_R34_SW REUNION_R34_NW REUNION_R50_NE REUNION_R50_SE REUNION_R50_SW REUNION_R50_NW REUNION_R64_NE REUNION_R64_SE REUNION_R64_SW REUNION_R64_NW BOM_LAT BOM_LON BOM_TYPE BOM_WIND BOM_PRES BOM_TNUM BOM_CI BOM_RMW BOM_R34_NE BOM_R34_SE BOM_R34_SW BOM_R34_NW BOM_R50_NE BOM_R50_SE BOM_R50_SW BOM_R50_NW BOM_R64_NE BOM_R64_SE BOM_R64_SW BOM_R64_NW BOM_ROCI BOM_POCI BOM_EYE BOM_POS_METHOD BOM_PRES_METHOD NADI_LAT NADI_LON NADI_CAT NADI_WIND NADI_PRES WELLINGTON_LAT WELLINGTON_LON WELLINGTON_WIND WELLINGTON_PRES DS824_LAT DS824_LON DS824_STAGE DS824_WIND DS824_PRES TD9636_LAT TD9636_LON TD9636_STAGE TD9636_WIND TD9636_PRES TD9635_LAT TD9635_LON TD9635_WIND TD9635_PRES TD9635_ROCI NEUMANN_LAT NEUMANN_LON NEUMANN_CLASS NEUMANN_WIND NEUMANN_PRES MLC_LAT MLC_LON MLC_CLASS MLC_WIND MLC_PRES USA_GUST BOM_GUST BOM_GUST_PER REUNION_GUST REUNION_GUST_PER USA_SEAHGT USA_SEARAD_NE USA_SEARAD_SE USA_SEARAD_SW USA_SEARAD_NW STORM_SPEED STORM_DIR
1881290N12318 1881 44 NA NA NOT_NAMED 1881-10-16 12:00:00 TS 12.0000 -42.0000 main 1338 1303 _____________O -1 12.0000 -42.0000 TD 25 14 287
1881290N12318 1881 44 NA NA NOT_NAMED 1881-10-16 15:00:00 TS 12.2004 -42.6623 main 1295 1264 _____________P -1 12.2004 -42.6623 TD 27 13 287
1881290N12318 1881 44 NA NA NOT_NAMED 1881-10-16 18:00:00 TS 12.4000 -43.3000 main 1264 1235 _____________O -1 12.4000 -43.3000 TD 30 13 288
1881290N12318 1881 44 NA NA NOT_NAMED 1881-10-16 21:00:00 TS 12.5998 -43.9001 main 1235 1210 _____________P -1 12.5998 -43.9001 TD 37 12 289
1881290N12318 1881 44 NA NA NOT_NAMED 1881-10-17 00:00:00 TS 12.8000 -44.5000 main 1210 1189 _____________O -1 12.8000 -44.5000 TS 45 13 288
1881290N12318 1881 44 NA NA NOT_NAMED 1881-10-17 03:00:00 TS 13.0074 -45.1500 main 1182 1165 _____________P -1 13.0074 -45.1500 TS 50 13 288
1881290N12318 1881 44 NA NA NOT_NAMED 1881-10-17 06:00:00 TS 13.2000 -45.8000 main 1165 1134 _____________O -1 13.2000 -45.8000 TS 55 13 285
1881290N12318 1881 44 NA NA NOT_NAMED 1881-10-17 09:00:00 TS 13.3347 -46.3929 main 1134 1114 _____________P -1 13.3347 -46.3929 TS 57 12 284
1881290N12318 1881 44 NA NA NOT_NAMED 1881-10-17 12:00:00 TS 13.5000 -47.0000 main 1114 1098 _____________O -1 13.5000 -47.0000 TS 60 13 290
1881290N12318 1881 44 NA NA NOT_NAMED 1881-10-17 15:00:00 TS 13.7849 -47.6849 main 1103 1097 _____________P -1 13.7849 -47.6849 TS 65 15 294
1881290N12318 1881 44 NA NA NOT_NAMED 1881-10-17 18:00:00 TS 14.1000 -48.4000 main 1097 1086 _____________O -1 14.1000 -48.4000 HU 70 15 292
1881290N12318 1881 44 NA NA NOT_NAMED 1881-10-17 21:00:00 TS 14.3498 -49.1003 main 1086 1085 _____________P -1 14.3498 -49.1003 HU 75 14 290
1881290N12318 1881 44 NA NA NOT_NAMED 1881-10-18 00:00:00 TS 14.6000 -49.8000 main 1086 1078 _____________O -1 14.6000 -49.8000 HU 80 15 292
1881290N12318 1881 44 NA NA NOT_NAMED 1881-10-18 03:00:00 TS 14.8999 -50.5075 main 1086 1082 _____________P -1 14.8999 -50.5075 HU 85 15 294
1881290N12318 1881 44 NA NA NOT_NAMED 1881-10-18 06:00:00 TS 15.2000 -51.2000 main 1091 1087 _____________O -1 15.2000 -51.2000 HU 90 14 291
1881290N12318 1881 44 NA NA NOT_NAMED 1881-10-18 09:00:00 TS 15.4047 -51.8508 main 1093 1077 _____________P -1 15.4047 -51.8508 HU 95 14 292
1881290N12318 1881 44 NA NA NOT_NAMED 1881-10-18 12:00:00 NR 15.7000 -52.5000 main 1077 1044 _____________O -1 15.7000 -52.5000 MH 100 15 303
1881290N12318 1881 44 NA NA NOT_NAMED 1881-10-18 15:00:00 NR 16.2474 -53.1924 main 1044 1034 _____________P -1 16.2474 -53.1924 MH 100 18 312
1881290N12318 1881 44 NA NA NOT_NAMED 1881-10-18 18:00:00 NR 16.9000 -53.9000 main 1034 1025 _____________O -1 16.9000 -53.9000 MH 100 18 313
1881290N12318 1881 44 NA NA NOT_NAMED 1881-10-18 21:00:00 NR 17.4998 -54.6005 main 1027 1021 _____________P -1 17.4998 -54.6005 MH 100 18 312
1881290N12318 1881 44 NA NA NOT_NAMED 1881-10-19 00:00:00 NR 18.1000 -55.3000 main 1030 1012 _____________O -1 18.1000 -55.3000 MH 100 18 312
1881290N12318 1881 44 NA NA NOT_NAMED 1881-10-19 03:00:00 NR 18.6998 -56.0079 main 1012 941 _____________P -1 18.6998 -56.0079 MH 100 18 312
1881290N12318 1881 44 NA NA NOT_NAMED 1881-10-19 06:00:00 NR 19.3000 -56.7000 main 941 877 _____________O -1 19.3000 -56.7000 MH 100 18 312
1881290N12318 1881 44 NA NA NOT_NAMED 1881-10-19 09:00:00 NR 19.9002 -57.4173 main 877 830 _____________P -1 19.9002 -57.4173 MH 100 17 314
1881290N12318 1881 44 NA NA NOT_NAMED 1881-10-19 12:00:00 NR 20.5000 -58.0000 main 830 816 _____________O -1 20.5000 -58.0000 MH 100 15 325
1881290N12318 1881 44 NA NA NOT_NAMED 1881-10-19 15:00:00 NR 21.1070 -58.3108 main 821 815 _____________P -1 21.1070 -58.3108 MH 102 13 339
1881290N12318 1881 44 NA NA NOT_NAMED 1881-10-19 18:00:00 NR 21.7000 -58.5000 main 828 823 _____________O -1 21.7000 -58.5000 MH 105 13 341
1881290N12318 1881 44 NA NA NOT_NAMED 1881-10-19 21:00:00 NR 22.2949 -58.7500 main 832 832 _____________P -1 22.2949 -58.7500 MH 105 12 337
1881290N12318 1881 44 NA NA NOT_NAMED 1881-10-20 00:00:00 NR 22.8000 -59.0000 main 844 840 _____________O -1 22.8000 -59.0000 MH 105 9 329
1881290N12318 1881 44 NA NA NOT_NAMED 1881-10-20 03:00:00 NR 23.0625 -59.2508 main 839 837 _____________P -1 23.0625 -59.2508 MH 105 8 323
1881290N12318 1881 44 NA NA NOT_NAMED 1881-10-20 06:00:00 NR 23.4000 -59.5000 main 844 844 _____________O -1 23.4000 -59.5000 MH 105 12 338
1881290N12318 1881 44 NA NA NOT_NAMED 1881-10-20 09:00:00 NR 24.1850 -59.7569 main 883 883 _____________P -1 24.1850 -59.7569 MH 105 17 344
1881290N12318 1881 44 NA NA NOT_NAMED 1881-10-20 12:00:00 NR 25.0000 -60.0000 main 937 937 _____________O -1 25.0000 -60.0000 MH 105 954 14 342
1881290N12318 1881 44 NA NA NOT_NAMED 1881-10-20 15:00:00 NR 25.4674 -60.2080 main 969 963 _____________P -1 25.4674 -60.2080 MH 105 9 336
1881290N12318 1881 44 NA NA NOT_NAMED 1881-10-20 18:00:00 NR 25.8000 -60.4000 main 985 985 _____________O -1 25.8000 -60.4000 MH 105 8 333
1881290N12318 1881 44 NA NA NOT_NAMED 1881-10-20 21:00:00 NR 26.1499 -60.5854 main 1002 1002 _____________P -1 26.1499 -60.5854 MH 105 8 333
1881290N12318 1881 44 NA NA NOT_NAMED 1881-10-21 00:00:00 NR 26.5000 -60.8000 main 1030 1030 _____________O -1 26.5000 -60.8000 MH 105 9 329
1881290N12318 1881 44 NA NA NOT_NAMED 1881-10-21 03:00:00 NR 26.9000 -61.0850 main 1056 1056 _____________P -1 26.9000 -61.0850 MH 100 10 326
1881290N12318 1881 44 NA NA NOT_NAMED 1881-10-21 06:00:00 TS 27.3000 -61.4000 main 1083 1083 _____________O -1 27.3000 -61.4000 HU 95 9 321
1881290N12318 1881 44 NA NA NOT_NAMED 1881-10-21 09:00:00 TS 27.6201 -61.7449 main 1102 1099 _____________P -1 27.6201 -61.7449 HU 92 9 323
1881290N12318 1881 44 NA NA NOT_NAMED 1881-10-21 12:00:00 TS 28.0000 -62.0000 main 1134 1134 _____________O -1 28.0000 -62.0000 HU 90 9 337
1881290N12318 1881 44 NA NA NOT_NAMED 1881-10-21 15:00:00 TS 28.4866 -62.1693 main 1180 1180 _____________P -1 28.4866 -62.1693 HU 90 12 1
1881290N12318 1881 44 NA NA NOT_NAMED 1881-10-21 18:00:00 TS 29.2000 -62.0000 main 1261 1261 _____________O -1 29.2000 -62.0000 HU 90 975 19 21
1881290N12318 1881 44 NA NA NOT_NAMED 1881-10-21 21:00:00 TS 30.2605 -61.3974 main 1395 1395 _____________P -1 30.2605 -61.3974 HU 90 27 34
1881290N12318 1881 44 NA NA NOT_NAMED 1881-10-22 00:00:00 TS 31.4000 -60.3000 main 1416 1372 _____________O -1 31.4000 -60.3000 HU 90 30 48
1881290N12318 1881 44 NA NA NOT_NAMED 1881-10-22 03:00:00 TS 32.2893 -58.7686 main 1369 1358 _____________P -1 32.2893 -58.7686 HU 90 33 59
1881290N12318 1881 44 NA NA NOT_NAMED 1881-10-22 06:00:00 TS 33.1000 -57.0000 main 1363 1337 _____________O -1 33.1000 -57.0000 HU 90 34 59
1881290N12318 1881 44 NA NA NOT_NAMED 1881-10-22 09:00:00 TS 34.0255 -55.2705 main 1340 1311 _____________P -1 34.0255 -55.2705 HU 90 32 58
1881290N12318 1881 44 NA NA NOT_NAMED 1881-10-22 12:00:00 TS 34.8000 -53.7000 main 1312 1269 _____________O -1 34.8000 -53.7000 HU 90 26 62
1881290N12318 1881 44 NA NA NOT_NAMED 1881-10-22 15:00:00 TS 35.2212 -52.5118 main 1269 1241 _____________P -1 35.2212 -52.5118 HU 90 19 69
1881290N12318 1881 44 NA NA NOT_NAMED 1881-10-22 18:00:00 TS 35.5000 -51.5000 main 1243 1220 _____________O -1 35.5000 -51.5000 HU 90 18 70
1881290N12318 1881 44 NA NA NOT_NAMED 1881-10-22 21:00:00 TS 35.8492 -50.3917 main 1223 1198 _____________P -1 35.8492 -50.3917 HU 90 19 69
1881290N12318 1881 44 NA NA NOT_NAMED 1881-10-23 00:00:00 TS 36.2000 -49.3000 main 1201 1188 _____________O -1 36.2000 -49.3000 HU 90 19 68
1881290N12318 1881 44 NA NA NOT_NAMED 1881-10-23 03:00:00 TS 36.5562 -48.2492 main 1186 1179 _____________P -1 36.5562 -48.2492 HU 90 18 67
1881290N12318 1881 44 NA NA NOT_NAMED 1881-10-23 06:00:00 TS 36.9000 -47.2000 main 1186 1186 _____________O -1 36.9000 -47.2000 HU 90 17 71
1881290N12318 1881 44 NA NA NOT_NAMED 1881-10-23 09:00:00 TS 37.0958 -46.2608 main 1199 1199 _____________P -1 37.0958 -46.2608 HU 90 19 71
1881290N12318 1881 44 NA NA NOT_NAMED 1881-10-23 12:00:00 TS 37.5000 -45.0000 main 1214 1214 _____________O -1 37.5000 -45.0000 HU 90 29 64
1881290N12318 1881 44 NA NA NOT_NAMED 1881-10-23 15:00:00 TS 38.3994 -42.9635 main 1233 1233 _____________P -1 38.3994 -42.9635 HU 85 40 60
1881290N12318 1881 44 NA NA NOT_NAMED 1881-10-23 18:00:00 TS 39.5000 -40.6000 main 1287 1285 _____________O -1 39.5000 -40.6000 HU 80 41 59
1881290N12318 1881 44 NA NA NOT_NAMED 1881-10-23 21:00:00 TS 40.4952 -38.4431 main 1360 1360 _____________P -1 40.4952 -38.4431 HU 70 38 59
1881290N12318 1881 44 NA NA NOT_NAMED 1881-10-24 00:00:00 ET 41.5000 -36.3000 main 1446 1446 _____________O -1 41.5000 -36.3000 EX 60 38 58
1881290N12318 1881 44 NA NA NOT_NAMED 1881-10-24 03:00:00 ET 42.4963 -34.1009 main 1547 1547 _____________P -1 42.4963 -34.1009 EX 52 38 58
1881290N12318 1881 44 NA NA NOT_NAMED 1881-10-24 06:00:00 ET 43.5000 -31.9000 main 1661 1638 _____________O -1 43.5000 -31.9000 EX 45 38 58
1881290N12318 1881 44 NA NA NOT_NAMED 1881-10-24 09:00:00 ET 44.5079 -29.7129 main 1632 1440 _____________P -1 44.5079 -29.7129 EX 45 37 57
1881290N12318 1881 44 NA NA NOT_NAMED 1881-10-24 12:00:00 ET 45.5000 -27.5000 main 1427 _____________O -1 45.5000 -27.5000 EX 45 991 37 57

About IBTrACS Database

This database is a web-friendly format of International Best Track Archive for Climate Stewardship (IBTrACS), a global best track data archive curated by NOAA dating back to 1842.

Updated: 2021-10-08